sensor_id;sensor_type;location;lat;lon;timestamp;P1;durP1;ratioP1;P2;durP2;ratioP2
3873;SDS011;1952;50.872;6.692;2022-09-25T00:30:40;24.50;;;19.60;;
3873;SDS011;1952;50.872;6.692;2022-09-25T00:33:08;28.80;;;22.83;;
3873;SDS011;1952;50.872;6.692;2022-09-25T00:35:36;28.50;;;23.43;;
3873;SDS011;1952;50.872;6.692;2022-09-25T00:38:10;32.67;;;22.13;;
3873;SDS011;1952;50.872;6.692;2022-09-25T00:40:38;34.60;;;26.33;;
3873;SDS011;1952;50.872;6.692;2022-09-25T00:43:11;34.53;;;27.53;;
3873;SDS011;1952;50.872;6.692;2022-09-25T00:45:42;29.27;;;23.90;;
3873;SDS011;1952;50.872;6.692;2022-09-25T00:48:16;24.50;;;21.60;;
3873;SDS011;1952;50.872;6.692;2022-09-25T00:50:45;26.00;;;21.90;;
3873;SDS011;1952;50.872;6.692;2022-09-25T00:53:17;23.70;;;18.13;;
3873;SDS011;1952;50.872;6.692;2022-09-25T00:55:48;29.53;;;24.60;;
3873;SDS011;1952;50.872;6.692;2022-09-25T00:58:18;25.00;;;20.23;;
3873;SDS011;1952;50.872;6.692;2022-09-25T01:00:50;32.13;;;24.00;;
3873;SDS011;1952;50.872;6.692;2022-09-25T01:03:20;25.73;;;21.13;;
3873;SDS011;1952;50.872;6.692;2022-09-25T01:05:49;29.40;;;21.83;;
3873;SDS011;1952;50.872;6.692;2022-09-25T01:08:18;28.00;;;23.13;;
3873;SDS011;1952;50.872;6.692;2022-09-25T01:10:49;23.20;;;19.63;;
3873;SDS011;1952;50.872;6.692;2022-09-25T01:13:18;31.30;;;21.37;;
3873;SDS011;1952;50.872;6.692;2022-09-25T01:15:48;28.97;;;23.87;;
3873;SDS011;1952;50.872;6.692;2022-09-25T01:18:27;26.40;;;21.27;;
3873;SDS011;1952;50.872;6.692;2022-09-25T01:21:18;23.90;;;20.43;;
3873;SDS011;1952;50.872;6.692;2022-09-25T01:24:10;26.27;;;21.20;;
3873;SDS011;1952;50.872;6.692;2022-09-25T01:27:14;28.27;;;21.77;;
3873;SDS011;1952;50.872;6.692;2022-09-25T01:30:16;20.50;;;17.97;;
3873;SDS011;1952;50.872;6.692;2022-09-25T01:32:51;22.73;;;19.37;;
3873;SDS011;1952;50.872;6.692;2022-09-25T01:35:28;20.77;;;18.40;;
3873;SDS011;1952;50.872;6.692;2022-09-25T01:38:10;21.17;;;18.23;;
3873;SDS011;1952;50.872;6.692;2022-09-25T01:40:47;19.80;;;17.70;;
3873;SDS011;1952;50.872;6.692;2022-09-25T01:43:21;21.27;;;18.47;;
3873;SDS011;1952;50.872;6.692;2022-09-25T01:45:55;21.23;;;19.07;;
3873;SDS011;1952;50.872;6.692;2022-09-25T01:48:27;20.43;;;15.97;;
3873;SDS011;1952;50.872;6.692;2022-09-25T01:50:58;21.50;;;17.70;;
3873;SDS011;1952;50.872;6.692;2022-09-25T01:53:30;21.00;;;18.00;;
3873;SDS011;1952;50.872;6.692;2022-09-25T01:56:07;16.10;;;14.40;;
3873;SDS011;1952;50.872;6.692;2022-09-25T01:58:48;17.57;;;14.83;;
3873;SDS011;1952;50.872;6.692;2022-09-25T02:01:21;20.27;;;18.10;;
3873;SDS011;1952;50.872;6.692;2022-09-25T02:03:54;18.50;;;14.73;;
3873;SDS011;1952;50.872;6.692;2022-09-25T02:06:25;18.40;;;15.77;;
3873;SDS011;1952;50.872;6.692;2022-09-25T02:08:56;16.83;;;15.20;;
3873;SDS011;1952;50.872;6.692;2022-09-25T02:11:28;14.07;;;12.63;;
3873;SDS011;1952;50.872;6.692;2022-09-25T02:14:06;16.07;;;14.13;;
3873;SDS011;1952;50.872;6.692;2022-09-25T02:16:39;14.53;;;13.07;;
3873;SDS011;1952;50.872;6.692;2022-09-25T02:19:14;16.57;;;14.07;;
3873;SDS011;1952;50.872;6.692;2022-09-25T02:22:01;19.60;;;14.97;;
3873;SDS011;1952;50.872;6.692;2022-09-25T02:24:38;19.37;;;15.10;;
3873;SDS011;1952;50.872;6.692;2022-09-25T02:27:12;16.70;;;14.90;;
3873;SDS011;1952;50.872;6.692;2022-09-25T02:29:40;12.83;;;11.40;;
3873;SDS011;1952;50.872;6.692;2022-09-25T02:32:11;16.50;;;14.40;;
3873;SDS011;1952;50.872;6.692;2022-09-25T02:34:46;17.90;;;12.93;;
3873;SDS011;1952;50.872;6.692;2022-09-25T02:37:15;11.50;;;10.40;;
3873;SDS011;1952;50.872;6.692;2022-09-25T02:39:46;16.30;;;12.10;;
3873;SDS011;1952;50.872;6.692;2022-09-25T02:42:18;16.33;;;13.30;;
3873;SDS011;1952;50.872;6.692;2022-09-25T02:45:01;14.40;;;11.63;;
3873;SDS011;1952;50.872;6.692;2022-09-25T02:47:41;12.37;;;10.00;;
3873;SDS011;1952;50.872;6.692;2022-09-25T02:50:13;10.77;;;9.13;;
3873;SDS011;1952;50.872;6.692;2022-09-25T02:52:49;16.67;;;10.30;;
3873;SDS011;1952;50.872;6.692;2022-09-25T02:55:20;10.70;;;9.53;;
3873;SDS011;1952;50.872;6.692;2022-09-25T02:57:53;15.60;;;9.00;;
3873;SDS011;1952;50.872;6.692;2022-09-25T03:00:23;9.00;;;8.10;;
3873;SDS011;1952;50.872;6.692;2022-09-25T03:02:54;9.90;;;8.83;;
3873;SDS011;1952;50.872;6.692;2022-09-25T03:05:25;9.00;;;8.10;;
3873;SDS011;1952;50.872;6.692;2022-09-25T03:07:53;14.30;;;7.83;;
3873;SDS011;1952;50.872;6.692;2022-09-25T03:10:44;13.50;;;8.37;;
3873;SDS011;1952;50.872;6.692;2022-09-25T03:13:14;11.00;;;7.10;;
3873;SDS011;1952;50.872;6.692;2022-09-25T03:15:47;8.97;;;8.07;;
3873;SDS011;1952;50.872;6.692;2022-09-25T03:18:18;9.83;;;7.90;;
3873;SDS011;1952;50.872;6.692;2022-09-25T03:20:47;10.53;;;7.63;;
3873;SDS011;1952;50.872;6.692;2022-09-25T03:23:20;8.00;;;7.20;;
3873;SDS011;1952;50.872;6.692;2022-09-25T03:25:53;10.93;;;7.83;;
3873;SDS011;1952;50.872;6.692;2022-09-25T03:28:27;8.67;;;7.80;;
3873;SDS011;1952;50.872;6.692;2022-09-25T03:30:56;12.97;;;8.87;;
3873;SDS011;1952;50.872;6.692;2022-09-25T03:33:26;11.30;;;7.87;;
3873;SDS011;1952;50.872;6.692;2022-09-25T03:36:01;11.60;;;8.23;;
3873;SDS011;1952;50.872;6.692;2022-09-25T03:38:34;7.60;;;6.70;;
3873;SDS011;1952;50.872;6.692;2022-09-25T03:41:08;10.20;;;7.20;;
3873;SDS011;1952;50.872;6.692;2022-09-25T03:43:37;8.17;;;7.37;;
3873;SDS011;1952;50.872;6.692;2022-09-25T03:46:06;10.30;;;9.10;;
3873;SDS011;1952;50.872;6.692;2022-09-25T03:48:36;10.03;;;6.80;;
3873;SDS011;1952;50.872;6.692;2022-09-25T03:51:05;13.33;;;8.97;;
3873;SDS011;1952;50.872;6.692;2022-09-25T03:53:34;8.93;;;7.77;;
3873;SDS011;1952;50.872;6.692;2022-09-25T03:56:08;11.83;;;8.90;;
3873;SDS011;1952;50.872;6.692;2022-09-25T03:58:41;16.37;;;7.50;;
3873;SDS011;1952;50.872;6.692;2022-09-25T04:01:14;7.60;;;6.47;;
3873;SDS011;1952;50.872;6.692;2022-09-25T04:03:46;7.37;;;6.67;;
3873;SDS011;1952;50.872;6.692;2022-09-25T04:06:15;10.90;;;8.20;;
3873;SDS011;1952;50.872;6.692;2022-09-25T04:08:48;11.60;;;7.70;;
3873;SDS011;1952;50.872;6.692;2022-09-25T04:11:22;11.80;;;8.20;;
3873;SDS011;1952;50.872;6.692;2022-09-25T04:13:56;10.60;;;8.20;;
3873;SDS011;1952;50.872;6.692;2022-09-25T04:16:24;11.13;;;8.07;;
3873;SDS011;1952;50.872;6.692;2022-09-25T04:18:56;10.40;;;7.13;;
3873;SDS011;1952;50.872;6.692;2022-09-25T04:21:25;12.20;;;7.93;;
3873;SDS011;1952;50.872;6.692;2022-09-25T04:23:53;16.00;;;8.70;;
3873;SDS011;1952;50.872;6.692;2022-09-25T04:26:44;7.90;;;6.77;;
3873;SDS011;1952;50.872;6.692;2022-09-25T04:29:13;9.40;;;6.07;;
3873;SDS011;1952;50.872;6.692;2022-09-25T04:31:46;6.50;;;5.80;;
3873;SDS011;1952;50.872;6.692;2022-09-25T04:34:36;12.03;;;6.50;;
3873;SDS011;1952;50.872;6.692;2022-09-25T04:37:03;6.50;;;5.27;;
3873;SDS011;1952;50.872;6.692;2022-09-25T04:39:31;12.60;;;5.80;;
3873;SDS011;1952;50.872;6.692;2022-09-25T04:41:59;6.63;;;4.70;;
3873;SDS011;1952;50.872;6.692;2022-09-25T04:44:28;5.80;;;5.30;;
3873;SDS011;1952;50.872;6.692;2022-09-25T04:46:56;6.93;;;4.70;;
3873;SDS011;1952;50.872;6.692;2022-09-25T04:49:25;6.80;;;4.53;;
3873;SDS011;1952;50.872;6.692;2022-09-25T04:51:59;5.40;;;4.60;;
3873;SDS011;1952;50.872;6.692;2022-09-25T04:54:33;7.50;;;4.10;;
3873;SDS011;1952;50.872;6.692;2022-09-25T04:57:06;7.23;;;5.00;;
3873;SDS011;1952;50.872;6.692;2022-09-25T04:59:35;4.77;;;4.20;;
3873;SDS011;1952;50.872;6.692;2022-09-25T05:02:03;6.87;;;3.73;;
3873;SDS011;1952;50.872;6.692;2022-09-25T05:04:32;8.40;;;3.67;;
3873;SDS011;1952;50.872;6.692;2022-09-25T05:07:06;5.57;;;4.73;;
3873;SDS011;1952;50.872;6.692;2022-09-25T05:09:35;8.10;;;3.63;;
3873;SDS011;1952;50.872;6.692;2022-09-25T05:12:04;7.97;;;3.60;;
3873;SDS011;1952;50.872;6.692;2022-09-25T05:14:33;12.77;;;5.90;;
3873;SDS011;1952;50.872;6.692;2022-09-25T05:17:01;6.70;;;3.50;;
3873;SDS011;1952;50.872;6.692;2022-09-25T05:19:30;11.60;;;4.13;;
3873;SDS011;1952;50.872;6.692;2022-09-25T05:21:58;9.87;;;4.20;;
3873;SDS011;1952;50.872;6.692;2022-09-25T05:24:33;8.30;;;4.77;;
3873;SDS011;1952;50.872;6.692;2022-09-25T05:27:04;6.30;;;4.33;;
3873;SDS011;1952;50.872;6.692;2022-09-25T05:29:33;4.20;;;3.33;;
3873;SDS011;1952;50.872;6.692;2022-09-25T05:32:06;8.27;;;4.60;;
3873;SDS011;1952;50.872;6.692;2022-09-25T05:34:35;8.17;;;4.27;;
3873;SDS011;1952;50.872;6.692;2022-09-25T05:37:08;10.30;;;5.00;;
3873;SDS011;1952;50.872;6.692;2022-09-25T05:39:38;8.30;;;4.93;;
3873;SDS011;1952;50.872;6.692;2022-09-25T05:42:06;10.13;;;4.53;;
3873;SDS011;1952;50.872;6.692;2022-09-25T05:44:35;4.80;;;4.20;;
3873;SDS011;1952;50.872;6.692;2022-09-25T05:47:05;9.00;;;3.63;;
3873;SDS011;1952;50.872;6.692;2022-09-25T05:49:35;5.00;;;4.60;;
3873;SDS011;1952;50.872;6.692;2022-09-25T05:52:03;9.10;;;4.60;;
3873;SDS011;1952;50.872;6.692;2022-09-25T06:33:14;10.77;;;4.33;;
3873;SDS011;1952;50.872;6.692;2022-09-25T06:35:42;8.73;;;5.33;;
3873;SDS011;1952;50.872;6.692;2022-09-25T06:38:12;4.77;;;4.37;;
3873;SDS011;1952;50.872;6.692;2022-09-25T06:40:42;5.40;;;3.77;;
3873;SDS011;1952;50.872;6.692;2022-09-25T06:43:15;7.97;;;4.53;;
3873;SDS011;1952;50.872;6.692;2022-09-25T06:45:43;10.03;;;4.13;;
3873;SDS011;1952;50.872;6.692;2022-09-25T06:48:16;6.10;;;5.33;;
3873;SDS011;1952;50.872;6.692;2022-09-25T06:50:47;7.07;;;4.70;;
3873;SDS011;1952;50.872;6.692;2022-09-25T06:53:19;5.23;;;3.43;;
3873;SDS011;1952;50.872;6.692;2022-09-25T06:55:55;10.80;;;4.10;;
3873;SDS011;1952;50.872;6.692;2022-09-25T06:58:30;8.63;;;4.60;;
3873;SDS011;1952;50.872;6.692;2022-09-25T07:00:58;8.80;;;4.53;;
3873;SDS011;1952;50.872;6.692;2022-09-25T07:03:28;8.93;;;4.13;;
3873;SDS011;1952;50.872;6.692;2022-09-25T07:06:16;7.50;;;3.40;;
3873;SDS011;1952;50.872;6.692;2022-09-25T07:08:51;5.00;;;3.80;;
3873;SDS011;1952;50.872;6.692;2022-09-25T07:11:25;4.90;;;4.40;;
3873;SDS011;1952;50.872;6.692;2022-09-25T07:14:01;5.77;;;3.73;;
3873;SDS011;1952;50.872;6.692;2022-09-25T07:16:29;6.80;;;4.37;;
3873;SDS011;1952;50.872;6.692;2022-09-25T07:19:08;9.90;;;4.47;;
3873;SDS011;1952;50.872;6.692;2022-09-25T07:21:43;6.63;;;5.00;;
3873;SDS011;1952;50.872;6.692;2022-09-25T07:24:12;8.30;;;3.83;;
3873;SDS011;1952;50.872;6.692;2022-09-25T07:26:40;8.27;;;3.90;;
3873;SDS011;1952;50.872;6.692;2022-09-25T07:29:08;6.87;;;4.20;;
3873;SDS011;1952;50.872;6.692;2022-09-25T07:31:37;4.83;;;3.53;;
3873;SDS011;1952;50.872;6.692;2022-09-25T07:34:12;8.43;;;3.67;;
3873;SDS011;1952;50.872;6.692;2022-09-25T07:36:46;3.60;;;3.10;;
3873;SDS011;1952;50.872;6.692;2022-09-25T07:39:18;6.37;;;3.33;;
3873;SDS011;1952;50.872;6.692;2022-09-25T07:41:46;8.87;;;3.93;;
3873;SDS011;1952;50.872;6.692;2022-09-25T07:44:15;5.50;;;3.10;;
3873;SDS011;1952;50.872;6.692;2022-09-25T07:46:55;5.67;;;2.77;;
3873;SDS011;1952;50.872;6.692;2022-09-25T07:49:26;6.70;;;3.10;;
3873;SDS011;1952;50.872;6.692;2022-09-25T07:51:55;4.50;;;3.23;;
3873;SDS011;1952;50.872;6.692;2022-09-25T07:54:24;8.10;;;2.90;;
3873;SDS011;1952;50.872;6.692;2022-09-25T07:56:57;6.37;;;2.90;;
3873;SDS011;1952;50.872;6.692;2022-09-25T07:59:26;8.93;;;3.20;;
3873;SDS011;1952;50.872;6.692;2022-09-25T08:01:54;5.80;;;2.20;;
3873;SDS011;1952;50.872;6.692;2022-09-25T08:04:37;6.53;;;3.10;;
3873;SDS011;1952;50.872;6.692;2022-09-25T08:07:16;5.53;;;3.07;;
3873;SDS011;1952;50.872;6.692;2022-09-25T08:09:44;4.40;;;2.80;;
3873;SDS011;1952;50.872;6.692;2022-09-25T08:12:15;6.93;;;3.40;;
3873;SDS011;1952;50.872;6.692;2022-09-25T08:14:44;9.17;;;2.87;;
3873;SDS011;1952;50.872;6.692;2022-09-25T08:17:13;4.60;;;2.83;;
3873;SDS011;1952;50.872;6.692;2022-09-25T08:19:43;3.00;;;2.77;;
3873;SDS011;1952;50.872;6.692;2022-09-25T08:22:11;4.60;;;2.90;;
3873;SDS011;1952;50.872;6.692;2022-09-25T08:24:39;6.10;;;2.80;;
3873;SDS011;1952;50.872;6.692;2022-09-25T08:27:07;8.80;;;4.00;;
3873;SDS011;1952;50.872;6.692;2022-09-25T08:29:35;6.73;;;3.70;;
3873;SDS011;1952;50.872;6.692;2022-09-25T08:32:04;8.30;;;4.07;;
3873;SDS011;1952;50.872;6.692;2022-09-25T08:34:33;6.80;;;3.20;;
3873;SDS011;1952;50.872;6.692;2022-09-25T08:37:10;3.70;;;3.10;;
3873;SDS011;1952;50.872;6.692;2022-09-25T08:39:38;3.93;;;2.47;;
3873;SDS011;1952;50.872;6.692;2022-09-25T08:42:13;7.63;;;2.90;;
3873;SDS011;1952;50.872;6.692;2022-09-25T08:44:48;3.53;;;2.27;;
3873;SDS011;1952;50.872;6.692;2022-09-25T08:47:40;5.37;;;2.60;;
3873;SDS011;1952;50.872;6.692;2022-09-25T08:50:27;7.40;;;2.60;;
3873;SDS011;1952;50.872;6.692;2022-09-25T08:53:01;7.33;;;2.73;;
3873;SDS011;1952;50.872;6.692;2022-09-25T08:55:46;7.07;;;2.60;;
3873;SDS011;1952;50.872;6.692;2022-09-25T08:58:39;7.37;;;3.77;;
3873;SDS011;1952;50.872;6.692;2022-09-25T09:01:11;5.47;;;2.67;;
3873;SDS011;1952;50.872;6.692;2022-09-25T09:03:56;7.37;;;2.60;;
3873;SDS011;1952;50.872;6.692;2022-09-25T09:06:32;5.10;;;3.00;;
3873;SDS011;1952;50.872;6.692;2022-09-25T09:09:04;7.83;;;2.40;;
3873;SDS011;1952;50.872;6.692;2022-09-25T09:11:50;3.03;;;1.90;;
3873;SDS011;1952;50.872;6.692;2022-09-25T09:14:23;5.17;;;2.30;;
3873;SDS011;1952;50.872;6.692;2022-09-25T09:17:14;6.10;;;2.57;;
3873;SDS011;1952;50.872;6.692;2022-09-25T09:19:49;4.33;;;2.20;;
3873;SDS011;1952;50.872;6.692;2022-09-25T09:22:48;3.87;;;2.30;;
3873;SDS011;1952;50.872;6.692;2022-09-25T09:28:26;4.23;;;2.30;;
3873;SDS011;1952;50.872;6.692;2022-09-25T09:31:19;7.03;;;2.50;;
3873;SDS011;1952;50.872;6.692;2022-09-25T09:34:21;4.77;;;2.50;;
3873;SDS011;1952;50.872;6.692;2022-09-25T09:37:24;3.70;;;2.63;;
3873;SDS011;1952;50.872;6.692;2022-09-25T09:40:23;3.03;;;2.27;;
3873;SDS011;1952;50.872;6.692;2022-09-25T09:43:04;4.53;;;2.53;;
3873;SDS011;1952;50.872;6.692;2022-09-25T09:46:01;4.27;;;2.70;;
3873;SDS011;1952;50.872;6.692;2022-09-25T09:48:56;4.50;;;2.50;;
3873;SDS011;1952;50.872;6.692;2022-09-25T09:51:35;2.87;;;2.17;;
3873;SDS011;1952;50.872;6.692;2022-09-25T09:54:10;5.20;;;2.63;;
3873;SDS011;1952;50.872;6.692;2022-09-25T09:56:49;4.63;;;2.53;;
3873;SDS011;1952;50.872;6.692;2022-09-25T09:59:20;3.00;;;2.70;;
3873;SDS011;1952;50.872;6.692;2022-09-25T10:01:59;2.53;;;2.10;;
3873;SDS011;1952;50.872;6.692;2022-09-25T10:04:37;6.27;;;3.87;;
3873;SDS011;1952;50.872;6.692;2022-09-25T10:07:20;4.87;;;2.97;;
3873;SDS011;1952;50.872;6.692;2022-09-25T10:09:54;4.50;;;2.53;;
3873;SDS011;1952;50.872;6.692;2022-09-25T10:12:28;5.57;;;3.27;;
3873;SDS011;1952;50.872;6.692;2022-09-25T10:18:14;7.20;;;3.07;;
3873;SDS011;1952;50.872;6.692;2022-09-25T10:20:44;3.83;;;2.80;;
3873;SDS011;1952;50.872;6.692;2022-09-25T10:23:20;4.20;;;2.70;;
3873;SDS011;1952;50.872;6.692;2022-09-25T10:26:03;4.87;;;3.10;;
3873;SDS011;1952;50.872;6.692;2022-09-25T10:28:54;4.40;;;2.93;;
3873;SDS011;1952;50.872;6.692;2022-09-25T10:31:30;5.07;;;3.10;;
3873;SDS011;1952;50.872;6.692;2022-09-25T10:34:05;3.50;;;3.10;;
3873;SDS011;1952;50.872;6.692;2022-09-25T10:37:11;3.57;;;3.00;;
3873;SDS011;1952;50.872;6.692;2022-09-25T10:39:59;5.83;;;3.37;;
3873;SDS011;1952;50.872;6.692;2022-09-25T10:42:39;5.33;;;3.30;;
3873;SDS011;1952;50.872;6.692;2022-09-25T10:45:26;5.80;;;3.63;;
3873;SDS011;1952;50.872;6.692;2022-09-25T10:47:58;6.33;;;3.80;;
3873;SDS011;1952;50.872;6.692;2022-09-25T10:51:04;4.47;;;3.10;;
3873;SDS011;1952;50.872;6.692;2022-09-25T10:54:10;3.90;;;2.50;;
3873;SDS011;1952;50.872;6.692;2022-09-25T10:56:45;4.33;;;3.13;;
3873;SDS011;1952;50.872;6.692;2022-09-25T10:59:16;4.43;;;2.70;;
3873;SDS011;1952;50.872;6.692;2022-09-25T11:01:46;4.13;;;2.83;;
3873;SDS011;1952;50.872;6.692;2022-09-25T11:04:28;5.70;;;3.00;;
3873;SDS011;1952;50.872;6.692;2022-09-25T11:07:00;4.37;;;2.90;;
3873;SDS011;1952;50.872;6.692;2022-09-25T11:09:32;3.80;;;2.50;;
3873;SDS011;1952;50.872;6.692;2022-09-25T11:12:05;4.77;;;3.10;;
3873;SDS011;1952;50.872;6.692;2022-09-25T11:14:59;5.53;;;3.13;;
3873;SDS011;1952;50.872;6.692;2022-09-25T11:17:36;5.67;;;2.93;;
3873;SDS011;1952;50.872;6.692;2022-09-25T11:26:07;7.43;;;3.40;;
3873;SDS011;1952;50.872;6.692;2022-09-25T11:28:41;5.03;;;3.40;;
3873;SDS011;1952;50.872;6.692;2022-09-25T11:31:20;6.07;;;3.60;;
3873;SDS011;1952;50.872;6.692;2022-09-25T11:33:58;5.70;;;3.80;;
3873;SDS011;1952;50.872;6.692;2022-09-25T11:36:38;4.60;;;2.93;;
3873;SDS011;1952;50.872;6.692;2022-09-25T11:39:13;5.67;;;3.60;;
3873;SDS011;1952;50.872;6.692;2022-09-25T11:42:07;4.53;;;2.60;;
3873;SDS011;1952;50.872;6.692;2022-09-25T11:44:43;6.97;;;3.40;;
3873;SDS011;1952;50.872;6.692;2022-09-25T11:47:22;6.20;;;2.43;;
3873;SDS011;1952;50.872;6.692;2022-09-25T11:49:55;4.03;;;2.60;;
3873;SDS011;1952;50.872;6.692;2022-09-25T11:52:56;2.83;;;2.40;;
3873;SDS011;1952;50.872;6.692;2022-09-25T12:33:51;2.50;;;2.20;;
3873;SDS011;1952;50.872;6.692;2022-09-25T12:36:25;4.23;;;1.80;;
3873;SDS011;1952;50.872;6.692;2022-09-25T12:39:02;4.80;;;2.53;;
3873;SDS011;1952;50.872;6.692;2022-09-25T12:41:51;2.43;;;1.50;;
3873;SDS011;1952;50.872;6.692;2022-09-25T12:44:22;2.60;;;2.03;;
3873;SDS011;1952;50.872;6.692;2022-09-25T12:46:59;2.40;;;2.20;;
3873;SDS011;1952;50.872;6.692;2022-09-25T12:49:37;2.17;;;1.90;;
3873;SDS011;1952;50.872;6.692;2022-09-25T12:52:24;4.60;;;2.40;;
3873;SDS011;1952;50.872;6.692;2022-09-25T12:54:58;3.53;;;2.13;;
3873;SDS011;1952;50.872;6.692;2022-09-25T12:57:44;4.03;;;2.17;;
3873;SDS011;1952;50.872;6.692;2022-09-25T13:00:17;3.20;;;2.43;;
3873;SDS011;1952;50.872;6.692;2022-09-25T13:02:51;3.53;;;2.10;;
3873;SDS011;1952;50.872;6.692;2022-09-25T13:05:25;3.30;;;2.37;;
3873;SDS011;1952;50.872;6.692;2022-09-25T13:08:06;4.73;;;1.90;;
3873;SDS011;1952;50.872;6.692;2022-09-25T13:10:41;2.17;;;1.40;;
3873;SDS011;1952;50.872;6.692;2022-09-25T13:13:18;4.17;;;2.03;;
3873;SDS011;1952;50.872;6.692;2022-09-25T13:15:53;1.90;;;1.60;;
3873;SDS011;1952;50.872;6.692;2022-09-25T13:18:23;2.20;;;1.53;;
3873;SDS011;1952;50.872;6.692;2022-09-25T13:20:55;3.27;;;1.67;;
3873;SDS011;1952;50.872;6.692;2022-09-25T13:23:25;3.17;;;2.00;;
3873;SDS011;1952;50.872;6.692;2022-09-25T13:25:57;3.30;;;1.80;;
3873;SDS011;1952;50.872;6.692;2022-09-25T13:28:47;3.07;;;2.40;;
3873;SDS011;1952;50.872;6.692;2022-09-25T13:31:48;1.90;;;1.50;;
3873;SDS011;1952;50.872;6.692;2022-09-25T13:34:19;1.97;;;1.67;;
3873;SDS011;1952;50.872;6.692;2022-09-25T13:37:07;2.57;;;1.83;;
3873;SDS011;1952;50.872;6.692;2022-09-25T13:39:43;2.07;;;1.83;;
3873;SDS011;1952;50.872;6.692;2022-09-25T13:42:47;2.17;;;1.97;;
3873;SDS011;1952;50.872;6.692;2022-09-25T13:45:32;2.40;;;1.90;;
3873;SDS011;1952;50.872;6.692;2022-09-25T13:48:08;1.60;;;1.50;;
3873;SDS011;1952;50.872;6.692;2022-09-25T13:57:05;3.60;;;1.80;;
3873;SDS011;1952;50.872;6.692;2022-09-25T13:59:41;2.67;;;1.50;;
3873;SDS011;1952;50.872;6.692;2022-09-25T14:02:43;2.00;;;1.80;;
3873;SDS011;1952;50.872;6.692;2022-09-25T14:05:19;2.40;;;1.60;;
3873;SDS011;1952;50.872;6.692;2022-09-25T14:07:59;2.37;;;1.50;;
3873;SDS011;1952;50.872;6.692;2022-09-25T14:10:41;3.40;;;1.57;;
3873;SDS011;1952;50.872;6.692;2022-09-25T14:13:26;2.20;;;1.30;;
3873;SDS011;1952;50.872;6.692;2022-09-25T14:15:58;2.07;;;1.33;;
3873;SDS011;1952;50.872;6.692;2022-09-25T14:18:42;5.57;;;1.53;;
3873;SDS011;1952;50.872;6.692;2022-09-25T14:21:20;2.50;;;1.90;;
3873;SDS011;1952;50.872;6.692;2022-09-25T14:24:17;1.53;;;1.27;;
3873;SDS011;1952;50.872;6.692;2022-09-25T14:26:54;1.87;;;1.50;;
3873;SDS011;1952;50.872;6.692;2022-09-25T14:29:30;2.70;;;1.63;;
3873;SDS011;1952;50.872;6.692;2022-09-25T14:32:10;3.37;;;1.40;;
3873;SDS011;1952;50.872;6.692;2022-09-25T14:35:25;2.50;;;1.57;;
3873;SDS011;1952;50.872;6.692;2022-09-25T14:38:18;5.10;;;1.80;;
3873;SDS011;1952;50.872;6.692;2022-09-25T14:41:04;3.80;;;1.87;;
3873;SDS011;1952;50.872;6.692;2022-09-25T14:43:57;3.63;;;2.27;;
3873;SDS011;1952;50.872;6.692;2022-09-25T14:46:44;3.07;;;2.77;;
3873;SDS011;1952;50.872;6.692;2022-09-25T14:49:32;2.27;;;1.50;;
3873;SDS011;1952;50.872;6.692;2022-09-25T14:52:04;3.63;;;2.13;;
3873;SDS011;1952;50.872;6.692;2022-09-25T14:54:39;3.37;;;1.90;;
3873;SDS011;1952;50.872;6.692;2022-09-25T14:57:09;2.40;;;1.97;;
3873;SDS011;1952;50.872;6.692;2022-09-25T15:02:57;4.37;;;2.40;;
3873;SDS011;1952;50.872;6.692;2022-09-25T15:05:30;1.47;;;1.37;;
3873;SDS011;1952;50.872;6.692;2022-09-25T15:08:00;2.20;;;1.67;;
3873;SDS011;1952;50.872;6.692;2022-09-25T15:10:31;3.87;;;1.63;;
3873;SDS011;1952;50.872;6.692;2022-09-25T15:13:05;3.20;;;1.50;;
3873;SDS011;1952;50.872;6.692;2022-09-25T15:15:56;2.80;;;1.47;;
3873;SDS011;1952;50.872;6.692;2022-09-25T15:18:44;3.70;;;1.83;;
3873;SDS011;1952;50.872;6.692;2022-09-25T15:21:24;2.20;;;1.90;;
3873;SDS011;1952;50.872;6.692;2022-09-25T15:24:00;2.50;;;1.40;;
3873;SDS011;1952;50.872;6.692;2022-09-25T15:26:32;4.83;;;1.90;;
3873;SDS011;1952;50.872;6.692;2022-09-25T15:29:12;2.97;;;1.93;;
3873;SDS011;1952;50.872;6.692;2022-09-25T15:31:49;1.33;;;1.23;;
3873;SDS011;1952;50.872;6.692;2022-09-25T15:34:26;1.97;;;1.37;;
3873;SDS011;1952;50.872;6.692;2022-09-25T15:37:13;2.87;;;1.87;;
3873;SDS011;1952;50.872;6.692;2022-09-25T15:39:46;4.20;;;1.77;;
3873;SDS011;1952;50.872;6.692;2022-09-25T15:42:14;2.03;;;1.37;;
3873;SDS011;1952;50.872;6.692;2022-09-25T15:44:43;3.87;;;1.77;;
3873;SDS011;1952;50.872;6.692;2022-09-25T15:50:26;4.30;;;1.73;;
3873;SDS011;1952;50.872;6.692;2022-09-25T15:52:57;3.60;;;2.03;;
3873;SDS011;1952;50.872;6.692;2022-09-25T15:55:35;2.97;;;1.70;;
3873;SDS011;1952;50.872;6.692;2022-09-25T15:58:06;1.63;;;1.53;;
3873;SDS011;1952;50.872;6.692;2022-09-25T16:00:54;2.23;;;1.30;;
3873;SDS011;1952;50.872;6.692;2022-09-25T16:03:44;2.33;;;1.60;;
3873;SDS011;1952;50.872;6.692;2022-09-25T16:09:47;2.93;;;1.70;;
3873;SDS011;1952;50.872;6.692;2022-09-25T16:12:29;3.47;;;2.17;;
3873;SDS011;1952;50.872;6.692;2022-09-25T16:15:02;2.30;;;2.10;;
3873;SDS011;1952;50.872;6.692;2022-09-25T16:18:32;1.83;;;1.70;;
3873;SDS011;1952;50.872;6.692;2022-09-25T16:21:22;2.53;;;1.73;;
3873;SDS011;1952;50.872;6.692;2022-09-25T16:23:55;2.10;;;1.60;;
3873;SDS011;1952;50.872;6.692;2022-09-25T16:26:34;1.97;;;1.80;;
3873;SDS011;1952;50.872;6.692;2022-09-25T16:29:06;2.03;;;1.37;;
3873;SDS011;1952;50.872;6.692;2022-09-25T16:31:49;3.10;;;1.90;;
3873;SDS011;1952;50.872;6.692;2022-09-25T16:34:19;1.70;;;1.60;;
3873;SDS011;1952;50.872;6.692;2022-09-25T16:36:52;5.23;;;1.40;;
3873;SDS011;1952;50.872;6.692;2022-09-25T16:39:32;3.17;;;1.23;;
3873;SDS011;1952;50.872;6.692;2022-09-25T16:45:00;2.10;;;1.70;;
3873;SDS011;1952;50.872;6.692;2022-09-25T16:47:34;2.40;;;1.63;;
3873;SDS011;1952;50.872;6.692;2022-09-25T16:50:03;2.00;;;1.30;;
3873;SDS011;1952;50.872;6.692;2022-09-25T16:52:32;3.07;;;2.00;;
3873;SDS011;1952;50.872;6.692;2022-09-25T16:55:04;2.27;;;1.60;;
3873;SDS011;1952;50.872;6.692;2022-09-25T16:57:39;4.10;;;1.90;;
3873;SDS011;1952;50.872;6.692;2022-09-25T17:00:13;2.30;;;1.80;;
3873;SDS011;1952;50.872;6.692;2022-09-25T17:02:44;1.83;;;1.67;;
3873;SDS011;1952;50.872;6.692;2022-09-25T17:05:15;1.77;;;1.53;;
3873;SDS011;1952;50.872;6.692;2022-09-25T17:07:46;2.57;;;1.73;;
3873;SDS011;1952;50.872;6.692;2022-09-25T17:10:17;2.00;;;1.50;;
3873;SDS011;1952;50.872;6.692;2022-09-25T17:15:36;2.17;;;1.50;;
3873;SDS011;1952;50.872;6.692;2022-09-25T17:18:12;3.57;;;1.90;;
3873;SDS011;1952;50.872;6.692;2022-09-25T17:20:44;2.53;;;2.00;;
3873;SDS011;1952;50.872;6.692;2022-09-25T17:23:12;2.80;;;1.73;;
3873;SDS011;1952;50.872;6.692;2022-09-25T17:25:47;2.97;;;1.67;;
3873;SDS011;1952;50.872;6.692;2022-09-25T17:28:28;2.17;;;2.00;;
3873;SDS011;1952;50.872;6.692;2022-09-25T17:30:59;3.80;;;1.87;;
3873;SDS011;1952;50.872;6.692;2022-09-25T17:33:28;2.87;;;2.20;;
3873;SDS011;1952;50.872;6.692;2022-09-25T17:36:03;2.63;;;1.80;;
3873;SDS011;1952;50.872;6.692;2022-09-25T17:38:33;2.00;;;1.87;;
3873;SDS011;1952;50.872;6.692;2022-09-25T17:41:11;2.80;;;1.60;;
3873;SDS011;1952;50.872;6.692;2022-09-25T17:43:52;1.97;;;1.60;;
3873;SDS011;1952;50.872;6.692;2022-09-25T17:46:21;2.00;;;1.80;;
3873;SDS011;1952;50.872;6.692;2022-09-25T17:48:50;2.50;;;1.60;;
3873;SDS011;1952;50.872;6.692;2022-09-25T17:51:34;2.60;;;2.10;;
3873;SDS011;1952;50.872;6.692;2022-09-25T17:54:11;3.10;;;2.20;;
3873;SDS011;1952;50.872;6.692;2022-09-25T18:35:54;2.50;;;2.00;;
3873;SDS011;1952;50.872;6.692;2022-09-25T18:38:23;2.40;;;2.30;;
3873;SDS011;1952;50.872;6.692;2022-09-25T18:40:51;4.67;;;3.03;;
3873;SDS011;1952;50.872;6.692;2022-09-25T18:43:25;3.53;;;3.23;;
3873;SDS011;1952;50.872;6.692;2022-09-25T18:45:59;4.23;;;3.93;;
3873;SDS011;1952;50.872;6.692;2022-09-25T18:48:29;3.70;;;3.40;;
3873;SDS011;1952;50.872;6.692;2022-09-25T18:51:04;2.87;;;2.60;;
3873;SDS011;1952;50.872;6.692;2022-09-25T18:53:32;4.80;;;2.30;;
3873;SDS011;1952;50.872;6.692;2022-09-25T18:56:05;3.20;;;2.33;;
3873;SDS011;1952;50.872;6.692;2022-09-25T18:58:35;2.57;;;2.37;;
3873;SDS011;1952;50.872;6.692;2022-09-25T19:01:08;3.30;;;3.00;;
3873;SDS011;1952;50.872;6.692;2022-09-25T19:03:48;3.53;;;3.27;;